• Join FlightAware (Why Join?)
  • Login
  • US Flag 
09:01PM EDT


 

Airport Tracker/Info


-or-


 

Live Flight TrackerFlight Track Log ✈ FIN664 ✈ 04-Nov-2013 ✈ EKCH / CPH - EFHK / HEL

Flight Track Log - Related Links

Times and Time Zones

All times are in EST time to prevent confusion due to time zone crossing. See the FIN664 flight status page for this flight to view local times or setup timezone preferences in your user account.

Time Position Orientation Groundspeed Altitude Reporting Facility
EST Latitude Longitude Course Direction KTS MPH feet Rate Location/Type
11:03AM 55.8592 13.1550 49° Northeast  Level Estimated
11:04AM 55.9392 13.3227 50° Northeast  Level Estimated
11:05AM 56.0189 13.4911 50° Northeast  Level Estimated
11:06AM 56.0985 13.6603 50° Northeast  Level Estimated
11:07AM 56.1777 13.8301 50° Northeast  Level Estimated
11:08AM 56.2568 14.0006 50° Northeast  Level Estimated
11:09AM 56.3356 14.1718 50° Northeast  Level Estimated
11:10AM 56.4142 14.3437 50° Northeast  Level Estimated
11:11AM 56.4925 14.5164 51° Northeast  Level Estimated
11:12AM 56.5706 14.6897 51° Northeast  Level Estimated
11:13AM 56.6485 14.8638 51° Northeast  Level Estimated
11:14AM 56.7261 15.0386 51° Northeast  Level Estimated
11:15AM 56.8035 15.2141 51° Northeast  Level Estimated
11:16AM 56.8806 15.3903 51° Northeast  Level Estimated
11:17AM 56.9575 15.5673 51° Northeast  Level Estimated
11:18AM 57.0341 15.7450 52° Northeast  Level Estimated
11:19AM 57.1093 15.9207 52° Northeast  Level Estimated
11:20AM 57.1843 16.0971 52° Northeast  Level Estimated
11:21AM 57.2590 16.2742 52° Northeast  Level Estimated
11:22AM 57.3335 16.4521 52° Northeast  Level Estimated
11:23AM 57.4077 16.6307 52° Northeast  Level Estimated
11:24AM 57.4817 16.8100 52° Northeast  Level Estimated
11:25AM 57.5554 16.9900 53° Northeast  Level Estimated
11:26AM 57.6288 17.1708 53° Northeast  Level Estimated
11:27AM 57.7020 17.3523 53° Northeast  Level Estimated
11:28AM 57.7749 17.5345 53° Northeast  Level Estimated
11:29AM 57.8476 17.7174 53° Northeast  Level Estimated
11:30AM 57.9200 17.9011 53° Northeast  Level Estimated
11:31AM 57.9922 18.0856 54° Northeast  Level Estimated
11:32AM 58.0640 18.2708 54° Northeast  Level Estimated
11:33AM 58.1356 18.4567 54° Northeast  Level Estimated
11:34AM 58.2070 18.6434 54° Northeast  Level Estimated
11:35AM 58.2780 18.8308 54° Northeast  Level Estimated
11:36AM 58.3488 19.0190 54° Northeast  Level Estimated
11:37AM 58.4193 19.2079 54° Northeast  Level Estimated
11:38AM 58.4896 19.3976 55° Northeast  Level Estimated
11:39AM 58.5595 19.5881 55° Northeast  Level Estimated
11:40AM 58.6292 19.7793 55° Northeast  Level Estimated
11:41AM 58.6985 19.9713 55° Northeast  Level Estimated
11:42AM 58.7676 20.1640 55° Northeast  Level Estimated
11:43AM 58.8364 20.3575 55° Northeast  Level Estimated
11:44AM 58.9049 20.5518 56° Northeast  Level Estimated
11:45AM 58.9731 20.7468 56° Northeast  Level Estimated
11:46AM 59.0411 20.9426 56° Northeast  Level Estimated
11:47AM 59.1087 21.1392 56° Northeast  Level Estimated
11:48AM 59.1771 21.3396 56° Northeast  Level Estimated
11:49AM 59.2451 21.5408 56° Northeast  Level Estimated
11:50AM 59.3129 21.7428 57° Northeast  Level Estimated
11:51AM 59.3803 21.9457 57° Northeast  Level Estimated
11:52AM 59.4474 22.1493 57° Northeast  Level Estimated
11:53AM 59.5142 22.3537 57° Northeast  Level Estimated
11:54AM 59.5807 22.5590 57° Northeast  Level Estimated
11:55AM 59.6468 22.7650 58° Northeast  Level Estimated
11:56AM 59.7126 22.9719 58° Northeast  Level Estimated
11:57AM 59.7781 23.1795 58° Northeast  Level Estimated
11:58AM 59.8433 23.3880 58° Northeast  Level Estimated
11:59AM 59.9081 23.5973 58° Northeast  Level Estimated
12:00PM 59.9727 23.8074 58° Northeast  Level Estimated
12:01PM 60.0368 24.0184 59° Northeast  Level Estimated
12:02PM 60.1007 24.2301 59° Northeast  Level Estimated
12:03PM 60.1642 24.4427 59° Northeast  Level Estimated
12:04PM 60.2273 24.6561 59° Northeast  Level Estimated
12:05PM 60.2901 24.8703 59° Northeast  Level Estimated
12:06PM 60.3172 24.9633 60° Northeast  Level Estimated
12:07PM 60.3172 24.9633 37° Northeast  Level Estimated
12:08PM 60.3172 24.9633 37° Northeast  Level Estimated
12:09PM 60.3172 24.9633 37° Northeast  Level Estimated
12:10PM 60.3172 24.9633 37° Northeast  Level Estimated
12:11PM 60.3172 24.9633 37° Northeast  Level Estimated
12:12PM 60.3172 24.9633 37° Northeast  Level Estimated
12:13PM 60.3172 24.9633 37° Northeast  Level Estimated
12:14PM 60.3172 24.9633 37° Northeast  Level Estimated
12:15PM 60.3172 24.9633 37° Northeast  Level Estimated
12:16PM 60.3172 24.9633 37° Northeast  Level Estimated